PHWVO EHAM-EHAM
Flight info
| Callsign | PHWVO |
|---|---|
| Flight time | 0h 10m |
| Altitude | 1000 |
| Route | VFR |
| Aircraft | C172/L-SD/L1 |
Departure
| Time | 2026-05-07 13:27 |
|---|---|
| Airport | Amsterdam Airport Schiphol (EHAM) |
Arrival
| Time | 2026-05-07 13:37 |
|---|---|
| Airport | Amsterdam Airport Schiphol (EHAM) |
| Time | Latitude | Longitude | Altitude | Speed | Heading |
|---|---|---|---|---|---|
| 2026-05-07 13:10 | 52.30022 | 4.78878 | -6 ft | 0 kts | 133° |
| 2026-05-07 13:15 | 52.30021 | 4.78878 | -6 ft | 0 kts | 132° |
| 2026-05-07 13:15 | 52.30020 | 4.78882 | -6 ft | 0 kts | 132° |
| 2026-05-07 13:15 | 52.30018 | 4.78884 | -6 ft | 0 kts | 132° |
| 2026-05-07 13:16 | 52.30017 | 4.78887 | -6 ft | 0 kts | 132° |
| 2026-05-07 13:16 | 52.30016 | 4.78889 | -6 ft | 0 kts | 132° |
| 2026-05-07 13:16 | 52.30014 | 4.78892 | -6 ft | 0 kts | 132° |
| 2026-05-07 13:16 | 52.30013 | 4.78894 | -6 ft | 0 kts | 132° |
| 2026-05-07 13:17 | 52.30011 | 4.78897 | -6 ft | 0 kts | 132° |
| 2026-05-07 13:17 | 52.30011 | 4.78900 | -6 ft | 0 kts | 65° |
| 2026-05-07 13:17 | 52.30022 | 4.78883 | -6 ft | 6 kts | 307° |
| 2026-05-07 13:17 | 52.30068 | 4.78792 | -6 ft | 13 kts | 305° |
| 2026-05-07 13:18 | 52.30042 | 4.78701 | -6 ft | 9 kts | 241° |
| 2026-05-07 13:18 | 52.30054 | 4.78600 | -6 ft | 0 kts | 313° |
| 2026-05-07 13:18 | 52.30055 | 4.78598 | -6 ft | 1 kts | 313° |
| 2026-05-07 13:18 | 52.30105 | 4.78509 | -6 ft | 17 kts | 311° |
| 2026-05-07 13:19 | 52.30158 | 4.78522 | -6 ft | 0 kts | 41° |
| 2026-05-07 13:23 | 52.30179 | 4.78550 | -6 ft | 11 kts | 42° |
| 2026-05-07 13:24 | 52.30340 | 4.78780 | -6 ft | 58 kts | 37° |
| 2026-05-07 13:24 | 52.30689 | 4.79285 | 105 ft | 78 kts | 41° |
| 2026-05-07 13:24 | 52.31119 | 4.79950 | 287 ft | 89 kts | 44° |
| 2026-05-07 13:24 | 52.31288 | 4.80946 | 432 ft | 106 kts | 114° |
| 2026-05-07 13:25 | 52.30643 | 4.81264 | 512 ft | 111 kts | 214° |
| 2026-05-07 13:25 | 52.30079 | 4.80324 | 417 ft | 120 kts | 242° |
| 2026-05-07 13:25 | 52.30231 | 4.79232 | 164 ft | 94 kts | 310° |
| 2026-05-07 13:25 | 52.30706 | 4.79314 | -1 ft | 71 kts | 38° |
| 2026-05-07 13:26 | 52.31060 | 4.79824 | 40 ft | 76 kts | 37° |
| 2026-05-07 13:26 | 52.31451 | 4.80479 | 263 ft | 83 kts | 70° |
| 2026-05-07 13:26 | 52.31157 | 4.81356 | 438 ft | 99 kts | 145° |
| 2026-05-07 13:26 | 52.30474 | 4.81211 | 579 ft | 107 kts | 162° |
| 2026-05-07 13:27 | 52.29903 | 4.80493 | 631 ft | 120 kts | 234° |
| 2026-05-07 13:27 | 52.29282 | 4.79537 | 732 ft | 121 kts | 214° |
| 2026-05-07 13:27 | 52.28465 | 4.79423 | 842 ft | 120 kts | 149° |
| 2026-05-07 13:27 | 52.28112 | 4.80461 | 1005 ft | 109 kts | 89° |
| 2026-05-07 13:28 | 52.28363 | 4.81669 | 887 ft | 124 kts | 40° |
| 2026-05-07 13:28 | 52.29187 | 4.81770 | 933 ft | 123 kts | 338° |
| 2026-05-07 13:28 | 52.29610 | 4.80545 | 829 ft | 139 kts | 268° |
| 2026-05-07 13:28 | 52.29034 | 4.79302 | 715 ft | 142 kts | 202° |
| 2026-05-07 13:29 | 52.28108 | 4.79451 | 640 ft | 128 kts | 144° |
| 2026-05-07 13:29 | 52.27786 | 4.80598 | 661 ft | 113 kts | 77° |
| 2026-05-07 13:29 | 52.28321 | 4.81278 | 704 ft | 104 kts | 0° |
| 2026-05-07 13:29 | 52.28856 | 4.80467 | 580 ft | 116 kts | 297° |
| 2026-05-07 13:30 | 52.29313 | 4.79385 | 390 ft | 105 kts | 315° |
| 2026-05-07 13:30 | 52.29769 | 4.78620 | 206 ft | 77 kts | 321° |
| 2026-05-07 13:30 | 52.30186 | 4.78571 | 37 ft | 64 kts | 41° |
| 2026-05-07 13:30 | 52.30468 | 4.78972 | -5 ft | 57 kts | 41° |
| 2026-05-07 13:31 | 52.30787 | 4.79431 | 89 ft | 74 kts | 39° |
| 2026-05-07 13:31 | 52.31211 | 4.80087 | 234 ft | 91 kts | 43° |
| 2026-05-07 13:31 | 52.31179 | 4.81068 | 367 ft | 98 kts | 127° |
| 2026-05-07 13:31 | 52.30586 | 4.81017 | 466 ft | 106 kts | 215° |
| 2026-05-07 13:32 | 52.29937 | 4.80289 | 572 ft | 117 kts | 216° |
| 2026-05-07 13:32 | 52.29221 | 4.79634 | 649 ft | 118 kts | 188° |
| 2026-05-07 13:32 | 52.28446 | 4.79943 | 622 ft | 119 kts | 144° |
| 2026-05-07 13:32 | 52.28229 | 4.81134 | 688 ft | 112 kts | 68° |
| 2026-05-07 13:33 | 52.28818 | 4.81745 | 693 ft | 104 kts | 341° |
| 2026-05-07 13:33 | 52.29129 | 4.80728 | 601 ft | 115 kts | 262° |
| 2026-05-07 13:33 | 52.28598 | 4.79844 | 646 ft | 110 kts | 188° |
| 2026-05-07 13:33 | 52.27945 | 4.80390 | 590 ft | 111 kts | 108° |
| 2026-05-07 13:34 | 52.28331 | 4.81118 | 597 ft | 106 kts | 343° |
| 2026-05-07 13:34 | 52.29263 | 4.79540 | 407 ft | 85 kts | 319° |
| 2026-05-07 13:34 | 52.29716 | 4.78781 | 239 ft | 89 kts | 317° |
| 2026-05-07 13:35 | 52.30161 | 4.78531 | 52 ft | 70 kts | 35° |
| 2026-05-07 13:35 | 52.30494 | 4.78998 | -3 ft | 60 kts | 41° |
| 2026-05-07 13:35 | 52.30868 | 4.79506 | 130 ft | 80 kts | 36° |
| 2026-05-07 13:35 | 52.31264 | 4.80163 | 361 ft | 89 kts | 65° |
| 2026-05-07 13:36 | 52.31018 | 4.81220 | 389 ft | 116 kts | 142° |
| 2026-05-07 13:36 | 52.30303 | 4.80885 | 437 ft | 102 kts | 212° |
| 2026-05-07 13:36 | 52.29998 | 4.79937 | 333 ft | 96 kts | 278° |
| 2026-05-07 13:36 | 52.30353 | 4.79054 | 137 ft | 79 kts | 338° |
| 2026-05-07 13:37 | 52.30764 | 4.79397 | 4 ft | 61 kts | 35° |
| 2026-05-07 13:37 | 52.31025 | 4.79755 | -6 ft | 24 kts | 41° |
| 2026-05-07 13:37 | 52.31145 | 4.79933 | -6 ft | 41 kts | 56° |
| 2026-05-07 13:37 | 52.31083 | 4.80204 | -6 ft | 0 kts | 128° |
| 2026-05-07 13:39 | 52.31063 | 4.80240 | -6 ft | 19 kts | 134° |
| 2026-05-07 13:39 | 52.31003 | 4.80351 | -6 ft | 4 kts | 278° |
| 2026-05-07 13:39 | 52.31066 | 4.80338 | -6 ft | 9 kts | 21° |
| 2026-05-07 13:39 | 52.31092 | 4.80312 | -6 ft | 1 kts | 302° |
| 2026-05-07 13:40 | 52.31099 | 4.80297 | -6 ft | 0 kts | 309° |